sensor_id;sensor_type;location;lat;lon;timestamp;temperature;humidity
37478;DHT22;23334;54.316;10.182;2022-08-26T00:01:03;18.30;99.90
37478;DHT22;23334;54.316;10.182;2022-08-26T00:03:28;18.20;99.90
37478;DHT22;23334;54.316;10.182;2022-08-26T00:05:55;18.20;99.90
37478;DHT22;23334;54.316;10.182;2022-08-26T00:08:21;18.20;99.90
37478;DHT22;23334;54.316;10.182;2022-08-26T00:10:46;18.30;99.90
37478;DHT22;23334;54.316;10.182;2022-08-26T00:13:13;18.30;99.90
37478;DHT22;23334;54.316;10.182;2022-08-26T00:15:39;18.30;99.90
37478;DHT22;23334;54.316;10.182;2022-08-26T00:18:05;18.30;99.90
37478;DHT22;23334;54.316;10.182;2022-08-26T00:20:32;18.30;99.90
37478;DHT22;23334;54.316;10.182;2022-08-26T00:22:57;18.30;99.90
37478;DHT22;23334;54.316;10.182;2022-08-26T00:25:24;18.20;99.90
37478;DHT22;23334;54.316;10.182;2022-08-26T00:27:50;18.20;99.90
37478;DHT22;23334;54.316;10.182;2022-08-26T00:30:20;18.30;99.90
37478;DHT22;23334;54.316;10.182;2022-08-26T00:32:46;18.20;99.90
37478;DHT22;23334;54.316;10.182;2022-08-26T00:35:12;18.30;99.90
37478;DHT22;23334;54.316;10.182;2022-08-26T00:37:39;18.30;99.90
37478;DHT22;23334;54.316;10.182;2022-08-26T00:40:06;18.30;99.90
37478;DHT22;23334;54.316;10.182;2022-08-26T00:42:32;18.30;99.90
37478;DHT22;23334;54.316;10.182;2022-08-26T00:44:58;18.30;99.90
37478;DHT22;23334;54.316;10.182;2022-08-26T00:47:31;18.30;99.90
37478;DHT22;23334;54.316;10.182;2022-08-26T00:49:58;18.20;99.90
37478;DHT22;23334;54.316;10.182;2022-08-26T00:52:25;18.30;99.90
37478;DHT22;23334;54.316;10.182;2022-08-26T00:54:57;18.20;99.90
37478;DHT22;23334;54.316;10.182;2022-08-26T00:57:24;18.20;99.90
37478;DHT22;23334;54.316;10.182;2022-08-26T00:59:55;18.30;99.90
37478;DHT22;23334;54.316;10.182;2022-08-26T01:02:22;18.20;99.90
37478;DHT22;23334;54.316;10.182;2022-08-26T01:04:50;18.20;99.90
37478;DHT22;23334;54.316;10.182;2022-08-26T01:07:16;18.20;99.90
37478;DHT22;23334;54.316;10.182;2022-08-26T01:09:42;18.20;99.90
37478;DHT22;23334;54.316;10.182;2022-08-26T01:12:07;18.20;99.90
37478;DHT22;23334;54.316;10.182;2022-08-26T01:14:34;18.30;99.90
37478;DHT22;23334;54.316;10.182;2022-08-26T01:17:02;18.20;99.90
37478;DHT22;23334;54.316;10.182;2022-08-26T01:19:42;18.20;99.90
37478;DHT22;23334;54.316;10.182;2022-08-26T01:22:29;18.20;99.90
37478;DHT22;23334;54.316;10.182;2022-08-26T01:24:57;18.20;99.90
37478;DHT22;23334;54.316;10.182;2022-08-26T01:27:24;18.20;99.90
37478;DHT22;23334;54.316;10.182;2022-08-26T01:29:51;18.20;99.90
37478;DHT22;23334;54.316;10.182;2022-08-26T01:45:47;18.10;99.90
37478;DHT22;23334;54.316;10.182;2022-08-26T01:48:16;18.00;99.90
37478;DHT22;23334;54.316;10.182;2022-08-26T01:50:44;18.00;99.90
37478;DHT22;23334;54.316;10.182;2022-08-26T01:53:12;18.00;99.90
37478;DHT22;23334;54.316;10.182;2022-08-26T01:55:43;18.10;99.90
37478;DHT22;23334;54.316;10.182;2022-08-26T01:58:16;18.10;99.90
37478;DHT22;23334;54.316;10.182;2022-08-26T02:00:43;18.10;99.90
37478;DHT22;23334;54.316;10.182;2022-08-26T02:03:09;18.10;99.90
37478;DHT22;23334;54.316;10.182;2022-08-26T02:05:47;18.20;99.90
37478;DHT22;23334;54.316;10.182;2022-08-26T02:08:14;18.00;99.90
37478;DHT22;23334;54.316;10.182;2022-08-26T02:10:41;17.90;99.90
37478;DHT22;23334;54.316;10.182;2022-08-26T02:13:09;17.90;99.90
37478;DHT22;23334;54.316;10.182;2022-08-26T02:15:35;18.00;99.90
37478;DHT22;23334;54.316;10.182;2022-08-26T02:18:03;17.90;99.90
37478;DHT22;23334;54.316;10.182;2022-08-26T02:20:29;17.90;99.90
37478;DHT22;23334;54.316;10.182;2022-08-26T02:22:55;18.10;99.90
37478;DHT22;23334;54.316;10.182;2022-08-26T02:25:34;18.10;99.90
37478;DHT22;23334;54.316;10.182;2022-08-26T02:28:03;18.00;99.90
37478;DHT22;23334;54.316;10.182;2022-08-26T02:30:30;17.90;99.90
37478;DHT22;23334;54.316;10.182;2022-08-26T02:33:00;17.90;99.90
37478;DHT22;23334;54.316;10.182;2022-08-26T02:35:29;17.90;99.90
37478;DHT22;23334;54.316;10.182;2022-08-26T02:37:54;17.80;99.90
37478;DHT22;23334;54.316;10.182;2022-08-26T02:40:25;17.70;99.90
37478;DHT22;23334;54.316;10.182;2022-08-26T02:42:51;17.80;99.90
37478;DHT22;23334;54.316;10.182;2022-08-26T02:45:17;17.90;99.90
37478;DHT22;23334;54.316;10.182;2022-08-26T02:47:43;17.70;99.90
37478;DHT22;23334;54.316;10.182;2022-08-26T02:50:09;17.90;99.90
37478;DHT22;23334;54.316;10.182;2022-08-26T02:52:35;18.00;99.90
37478;DHT22;23334;54.316;10.182;2022-08-26T02:55:02;17.80;99.90
37478;DHT22;23334;54.316;10.182;2022-08-26T02:57:27;17.70;99.90
37478;DHT22;23334;54.316;10.182;2022-08-26T02:59:53;17.70;99.90
37478;DHT22;23334;54.316;10.182;2022-08-26T03:02:18;17.80;99.90
37478;DHT22;23334;54.316;10.182;2022-08-26T03:04:45;17.60;99.90
37478;DHT22;23334;54.316;10.182;2022-08-26T03:07:11;17.70;99.90
37478;DHT22;23334;54.316;10.182;2022-08-26T03:09:36;17.60;99.90
37478;DHT22;23334;54.316;10.182;2022-08-26T03:12:02;17.50;99.90
37478;DHT22;23334;54.316;10.182;2022-08-26T03:14:28;17.60;99.90
37478;DHT22;23334;54.316;10.182;2022-08-26T03:16:54;17.90;99.90
37478;DHT22;23334;54.316;10.182;2022-08-26T03:19:23;17.50;99.90
37478;DHT22;23334;54.316;10.182;2022-08-26T03:21:50;17.40;99.90
37478;DHT22;23334;54.316;10.182;2022-08-26T03:24:16;17.70;99.90
37478;DHT22;23334;54.316;10.182;2022-08-26T03:26:43;17.30;99.90
37478;DHT22;23334;54.316;10.182;2022-08-26T03:29:08;17.50;99.90
37478;DHT22;23334;54.316;10.182;2022-08-26T03:31:52;17.20;99.90
37478;DHT22;23334;54.316;10.182;2022-08-26T03:34:18;17.20;99.90
37478;DHT22;23334;54.316;10.182;2022-08-26T03:36:44;17.30;99.90
37478;DHT22;23334;54.316;10.182;2022-08-26T03:39:10;16.30;99.90
37478;DHT22;23334;54.316;10.182;2022-08-26T03:41:36;17.30;99.90
37478;DHT22;23334;54.316;10.182;2022-08-26T03:44:06;17.40;99.90
37478;DHT22;23334;54.316;10.182;2022-08-26T03:48:59;17.40;99.90
37478;DHT22;23334;54.316;10.182;2022-08-26T03:51:25;17.50;99.90
37478;DHT22;23334;54.316;10.182;2022-08-26T03:53:51;17.30;99.90
37478;DHT22;23334;54.316;10.182;2022-08-26T03:56:16;17.50;99.90
37478;DHT22;23334;54.316;10.182;2022-08-26T03:58:42;17.30;99.90
37478;DHT22;23334;54.316;10.182;2022-08-26T04:01:10;17.70;99.90
37478;DHT22;23334;54.316;10.182;2022-08-26T04:03:36;17.30;99.90
37478;DHT22;23334;54.316;10.182;2022-08-26T04:06:20;17.80;99.90
37478;DHT22;23334;54.316;10.182;2022-08-26T04:08:46;17.10;99.90
37478;DHT22;23334;54.316;10.182;2022-08-26T04:11:16;17.20;99.90
37478;DHT22;23334;54.316;10.182;2022-08-26T04:13:42;17.30;99.90
37478;DHT22;23334;54.316;10.182;2022-08-26T04:16:08;17.30;99.90
37478;DHT22;23334;54.316;10.182;2022-08-26T04:18:33;17.30;99.90
37478;DHT22;23334;54.316;10.182;2022-08-26T04:21:05;17.20;99.90
37478;DHT22;23334;54.316;10.182;2022-08-26T04:23:30;17.20;99.90
37478;DHT22;23334;54.316;10.182;2022-08-26T04:25:56;17.20;99.90
37478;DHT22;23334;54.316;10.182;2022-08-26T04:28:22;17.20;99.90
37478;DHT22;23334;54.316;10.182;2022-08-26T04:30:47;17.30;99.90
37478;DHT22;23334;54.316;10.182;2022-08-26T04:33:16;17.40;99.90
37478;DHT22;23334;54.316;10.182;2022-08-26T04:35:41;17.40;99.90
37478;DHT22;23334;54.316;10.182;2022-08-26T04:38:08;17.60;99.90
37478;DHT22;23334;54.316;10.182;2022-08-26T04:40:34;17.70;99.90
37478;DHT22;23334;54.316;10.182;2022-08-26T04:43:03;17.50;99.90
37478;DHT22;23334;54.316;10.182;2022-08-26T04:45:29;17.70;99.90
37478;DHT22;23334;54.316;10.182;2022-08-26T04:50:22;17.90;99.90
37478;DHT22;23334;54.316;10.182;2022-08-26T04:52:49;17.90;99.90
37478;DHT22;23334;54.316;10.182;2022-08-26T04:55:15;18.00;99.90
37478;DHT22;23334;54.316;10.182;2022-08-26T04:57:40;17.90;99.90
37478;DHT22;23334;54.316;10.182;2022-08-26T05:00:08;18.20;99.90
37478;DHT22;23334;54.316;10.182;2022-08-26T05:02:38;18.30;99.90
37478;DHT22;23334;54.316;10.182;2022-08-26T05:05:06;18.40;99.90
37478;DHT22;23334;54.316;10.182;2022-08-26T05:07:33;18.60;99.90
37478;DHT22;23334;54.316;10.182;2022-08-26T05:10:00;18.60;99.90
37478;DHT22;23334;54.316;10.182;2022-08-26T05:12:28;18.60;99.90
37478;DHT22;23334;54.316;10.182;2022-08-26T05:14:54;18.80;99.90
37478;DHT22;23334;54.316;10.182;2022-08-26T05:17:21;18.80;99.90
37478;DHT22;23334;54.316;10.182;2022-08-26T05:19:47;19.10;99.90
37478;DHT22;23334;54.316;10.182;2022-08-26T05:22:13;19.00;99.90
37478;DHT22;23334;54.316;10.182;2022-08-26T05:24:39;19.10;99.90
37478;DHT22;23334;54.316;10.182;2022-08-26T05:27:05;19.20;99.90
37478;DHT22;23334;54.316;10.182;2022-08-26T05:29:32;19.30;99.90
37478;DHT22;23334;54.316;10.182;2022-08-26T05:31:58;19.40;99.90
37478;DHT22;23334;54.316;10.182;2022-08-26T05:34:25;19.50;99.90
37478;DHT22;23334;54.316;10.182;2022-08-26T05:36:50;19.60;99.90
37478;DHT22;23334;54.316;10.182;2022-08-26T05:39:18;19.60;99.90
37478;DHT22;23334;54.316;10.182;2022-08-26T05:41:44;19.70;99.90
37478;DHT22;23334;54.316;10.182;2022-08-26T05:44:12;19.70;99.90
37478;DHT22;23334;54.316;10.182;2022-08-26T05:46:39;19.80;99.90
37478;DHT22;23334;54.316;10.182;2022-08-26T05:49:06;19.80;99.90
37478;DHT22;23334;54.316;10.182;2022-08-26T05:51:31;20.00;99.90
37478;DHT22;23334;54.316;10.182;2022-08-26T05:53:57;20.10;99.90
37478;DHT22;23334;54.316;10.182;2022-08-26T05:56:25;20.20;99.90
37478;DHT22;23334;54.316;10.182;2022-08-26T05:58:52;20.20;99.90
37478;DHT22;23334;54.316;10.182;2022-08-26T06:01:21;20.30;99.90
37478;DHT22;23334;54.316;10.182;2022-08-26T06:03:50;20.20;99.90
37478;DHT22;23334;54.316;10.182;2022-08-26T06:06:28;20.30;99.90
37478;DHT22;23334;54.316;10.182;2022-08-26T06:08:54;20.40;99.90
37478;DHT22;23334;54.316;10.182;2022-08-26T06:11:22;20.30;99.90
37478;DHT22;23334;54.316;10.182;2022-08-26T06:13:52;20.30;99.90
37478;DHT22;23334;54.316;10.182;2022-08-26T06:16:19;20.40;99.90
37478;DHT22;23334;54.316;10.182;2022-08-26T06:18:46;20.50;99.90
37478;DHT22;23334;54.316;10.182;2022-08-26T06:21:34;20.50;99.90
37478;DHT22;23334;54.316;10.182;2022-08-26T06:24:03;20.60;99.90
37478;DHT22;23334;54.316;10.182;2022-08-26T06:26:51;20.80;99.90
37478;DHT22;23334;54.316;10.182;2022-08-26T06:29:19;20.80;99.90
37478;DHT22;23334;54.316;10.182;2022-08-26T06:31:44;20.90;99.90
37478;DHT22;23334;54.316;10.182;2022-08-26T06:34:10;21.30;99.90
37478;DHT22;23334;54.316;10.182;2022-08-26T10:12:18;38.60;88.80
37478;DHT22;23334;54.316;10.182;2022-08-26T10:14:54;38.00;87.00
37478;DHT22;23334;54.316;10.182;2022-08-26T10:17:46;36.80;90.90
37478;DHT22;23334;54.316;10.182;2022-08-26T10:20:16;35.40;91.70
37478;DHT22;23334;54.316;10.182;2022-08-26T10:22:53;34.20;93.10
37478;DHT22;23334;54.316;10.182;2022-08-26T10:25:22;33.30;94.40
37478;DHT22;23334;54.316;10.182;2022-08-26T10:28:16;34.80;93.40
37478;DHT22;23334;54.316;10.182;2022-08-26T10:30:52;36.70;91.60
37478;DHT22;23334;54.316;10.182;2022-08-26T10:33:21;36.70;90.70
37478;DHT22;23334;54.316;10.182;2022-08-26T10:35:58;36.40;89.60
37478;DHT22;23334;54.316;10.182;2022-08-26T10:38:37;36.30;90.00
37478;DHT22;23334;54.316;10.182;2022-08-26T10:41:13;36.00;90.00
37478;DHT22;23334;54.316;10.182;2022-08-26T10:44:09;35.50;91.30
37478;DHT22;23334;54.316;10.182;2022-08-26T10:46:44;35.90;92.60
37478;DHT22;23334;54.316;10.182;2022-08-26T10:49:12;34.60;92.20
37478;DHT22;23334;54.316;10.182;2022-08-26T10:52:01;33.60;93.20
37478;DHT22;23334;54.316;10.182;2022-08-26T10:57:49;33.10;95.90
37478;DHT22;23334;54.316;10.182;2022-08-26T11:00:23;33.10;97.10
37478;DHT22;23334;54.316;10.182;2022-08-26T11:06:28;33.00;97.10
37478;DHT22;23334;54.316;10.182;2022-08-26T11:08:59;33.10;98.60
37478;DHT22;23334;54.316;10.182;2022-08-26T11:11:43;33.20;99.90
37478;DHT22;23334;54.316;10.182;2022-08-26T11:16:48;32.10;99.90
37478;DHT22;23334;54.316;10.182;2022-08-26T11:32:49;30.00;99.90
37478;DHT22;23334;54.316;10.182;2022-08-26T11:37:53;29.90;99.90
37478;DHT22;23334;54.316;10.182;2022-08-26T11:40:28;30.10;99.90
37478;DHT22;23334;54.316;10.182;2022-08-26T11:43:00;29.50;99.90
37478;DHT22;23334;54.316;10.182;2022-08-26T11:45:32;30.00;99.90
37478;DHT22;23334;54.316;10.182;2022-08-26T11:48:17;30.00;99.90
37478;DHT22;23334;54.316;10.182;2022-08-26T11:50:59;29.60;99.90
37478;DHT22;23334;54.316;10.182;2022-08-26T11:53:25;29.50;99.90
37478;DHT22;23334;54.316;10.182;2022-08-26T11:55:54;29.10;99.90
37478;DHT22;23334;54.316;10.182;2022-08-26T11:58:21;28.80;99.90
37478;DHT22;23334;54.316;10.182;2022-08-26T12:00:53;29.10;99.90
37478;DHT22;23334;54.316;10.182;2022-08-26T12:03:30;29.10;99.90
37478;DHT22;23334;54.316;10.182;2022-08-26T12:06:00;29.00;99.90
37478;DHT22;23334;54.316;10.182;2022-08-26T12:08:27;28.90;99.90
37478;DHT22;23334;54.316;10.182;2022-08-26T12:11:08;28.60;99.90
37478;DHT22;23334;54.316;10.182;2022-08-26T12:13:34;28.80;99.90
37478;DHT22;23334;54.316;10.182;2022-08-26T12:16:03;29.00;99.90
37478;DHT22;23334;54.316;10.182;2022-08-26T12:18:32;29.50;99.90
37478;DHT22;23334;54.316;10.182;2022-08-26T12:20:59;29.20;99.90
37478;DHT22;23334;54.316;10.182;2022-08-26T12:23:38;29.50;99.90
37478;DHT22;23334;54.316;10.182;2022-08-26T12:26:26;29.70;99.90
37478;DHT22;23334;54.316;10.182;2022-08-26T12:29:11;29.60;99.90
37478;DHT22;23334;54.316;10.182;2022-08-26T12:32:14;29.40;99.90
37478;DHT22;23334;54.316;10.182;2022-08-26T12:34:46;29.30;99.90
37478;DHT22;23334;54.316;10.182;2022-08-26T12:37:14;28.90;99.90
37478;DHT22;23334;54.316;10.182;2022-08-26T12:42:45;28.00;99.90
37478;DHT22;23334;54.316;10.182;2022-08-26T12:45:11;27.70;99.90
37478;DHT22;23334;54.316;10.182;2022-08-26T12:47:39;26.60;99.90
37478;DHT22;23334;54.316;10.182;2022-08-26T12:50:22;27.00;99.90
37478;DHT22;23334;54.316;10.182;2022-08-26T12:55:41;27.30;99.90
37478;DHT22;23334;54.316;10.182;2022-08-26T12:58:28;27.20;99.90
37478;DHT22;23334;54.316;10.182;2022-08-26T13:14:10;26.50;99.90
37478;DHT22;23334;54.316;10.182;2022-08-26T13:16:37;26.10;99.90
37478;DHT22;23334;54.316;10.182;2022-08-26T13:19:09;26.00;99.90
37478;DHT22;23334;54.316;10.182;2022-08-26T13:21:40;26.10;99.90
37478;DHT22;23334;54.316;10.182;2022-08-26T13:24:14;25.60;99.90
37478;DHT22;23334;54.316;10.182;2022-08-26T13:26:42;25.30;99.90
37478;DHT22;23334;54.316;10.182;2022-08-26T13:29:08;25.10;99.90
37478;DHT22;23334;54.316;10.182;2022-08-26T13:31:34;25.00;99.90
37478;DHT22;23334;54.316;10.182;2022-08-26T13:34:01;25.20;99.90
37478;DHT22;23334;54.316;10.182;2022-08-26T13:36:27;25.20;99.90
37478;DHT22;23334;54.316;10.182;2022-08-26T13:38:52;25.30;99.90
37478;DHT22;23334;54.316;10.182;2022-08-26T13:41:18;24.90;99.90
37478;DHT22;23334;54.316;10.182;2022-08-26T13:43:45;27.20;99.90
37478;DHT22;23334;54.316;10.182;2022-08-26T13:46:12;24.80;99.90
37478;DHT22;23334;54.316;10.182;2022-08-26T13:48:38;24.80;99.90
37478;DHT22;23334;54.316;10.182;2022-08-26T13:51:04;24.90;99.90
37478;DHT22;23334;54.316;10.182;2022-08-26T13:53:30;25.10;99.90
37478;DHT22;23334;54.316;10.182;2022-08-26T13:56:02;24.80;99.90
37478;DHT22;23334;54.316;10.182;2022-08-26T13:58:27;25.10;99.90
37478;DHT22;23334;54.316;10.182;2022-08-26T14:00:55;24.80;99.90
37478;DHT22;23334;54.316;10.182;2022-08-26T14:03:21;24.60;99.90
37478;DHT22;23334;54.316;10.182;2022-08-26T14:05:47;24.60;99.90
37478;DHT22;23334;54.316;10.182;2022-08-26T14:08:13;24.50;99.90
37478;DHT22;23334;54.316;10.182;2022-08-26T14:10:39;24.50;99.90
37478;DHT22;23334;54.316;10.182;2022-08-26T14:13:05;24.40;99.90
37478;DHT22;23334;54.316;10.182;2022-08-26T14:15:33;24.60;99.90
37478;DHT22;23334;54.316;10.182;2022-08-26T14:18:02;24.90;99.90
37478;DHT22;23334;54.316;10.182;2022-08-26T14:20:29;25.00;99.90
37478;DHT22;23334;54.316;10.182;2022-08-26T14:22:55;25.00;99.90
37478;DHT22;23334;54.316;10.182;2022-08-26T14:25:21;25.30;99.90
37478;DHT22;23334;54.316;10.182;2022-08-26T14:27:48;25.00;99.90
37478;DHT22;23334;54.316;10.182;2022-08-26T14:30:15;25.60;99.90
37478;DHT22;23334;54.316;10.182;2022-08-26T14:32:44;26.10;99.90
37478;DHT22;23334;54.316;10.182;2022-08-26T14:35:29;26.20;99.90
37478;DHT22;23334;54.316;10.182;2022-08-26T14:37:56;26.30;99.90
37478;DHT22;23334;54.316;10.182;2022-08-26T14:40:30;26.80;99.90
37478;DHT22;23334;54.316;10.182;2022-08-26T14:42:56;26.70;99.90
37478;DHT22;23334;54.316;10.182;2022-08-26T14:45:24;26.30;99.90
37478;DHT22;23334;54.316;10.182;2022-08-26T14:47:50;26.80;99.90
37478;DHT22;23334;54.316;10.182;2022-08-26T14:50:20;26.30;99.90
37478;DHT22;23334;54.316;10.182;2022-08-26T14:52:49;26.60;99.90
37478;DHT22;23334;54.316;10.182;2022-08-26T14:55:36;26.50;99.90
37478;DHT22;23334;54.316;10.182;2022-08-26T14:58:02;26.50;99.90
37478;DHT22;23334;54.316;10.182;2022-08-26T15:00:28;26.10;99.90
37478;DHT22;23334;54.316;10.182;2022-08-26T15:02:54;26.60;99.90
37478;DHT22;23334;54.316;10.182;2022-08-26T15:05:19;25.80;99.90
37478;DHT22;23334;54.316;10.182;2022-08-26T15:07:45;26.10;99.90
37478;DHT22;23334;54.316;10.182;2022-08-26T15:10:13;25.90;99.90
37478;DHT22;23334;54.316;10.182;2022-08-26T15:12:39;25.90;99.90
37478;DHT22;23334;54.316;10.182;2022-08-26T15:15:06;25.80;99.90
37478;DHT22;23334;54.316;10.182;2022-08-26T15:17:32;26.20;99.90
37478;DHT22;23334;54.316;10.182;2022-08-26T15:19:59;25.70;99.90
37478;DHT22;23334;54.316;10.182;2022-08-26T15:22:25;26.10;99.90
37478;DHT22;23334;54.316;10.182;2022-08-26T15:24:51;25.70;99.90
37478;DHT22;23334;54.316;10.182;2022-08-26T15:27:16;25.60;99.90
37478;DHT22;23334;54.316;10.182;2022-08-26T15:29:42;25.40;99.90
37478;DHT22;23334;54.316;10.182;2022-08-26T15:32:08;27.70;99.90
37478;DHT22;23334;54.316;10.182;2022-08-26T15:34:34;26.10;99.90
37478;DHT22;23334;54.316;10.182;2022-08-26T15:37:00;25.60;99.90
37478;DHT22;23334;54.316;10.182;2022-08-26T15:39:26;25.50;99.90
37478;DHT22;23334;54.316;10.182;2022-08-26T15:41:52;25.60;99.90
37478;DHT22;23334;54.316;10.182;2022-08-26T15:44:21;26.70;99.90
37478;DHT22;23334;54.316;10.182;2022-08-26T15:46:47;25.60;99.90
37478;DHT22;23334;54.316;10.182;2022-08-26T15:49:15;25.90;99.90
37478;DHT22;23334;54.316;10.182;2022-08-26T15:51:41;25.90;99.90
37478;DHT22;23334;54.316;10.182;2022-08-26T15:54:07;25.60;99.90
37478;DHT22;23334;54.316;10.182;2022-08-26T15:56:35;25.20;99.90
37478;DHT22;23334;54.316;10.182;2022-08-26T15:59:02;25.70;99.90
37478;DHT22;23334;54.316;10.182;2022-08-26T16:01:29;25.70;99.90
37478;DHT22;23334;54.316;10.182;2022-08-26T16:03:56;25.90;99.90
37478;DHT22;23334;54.316;10.182;2022-08-26T16:06:26;25.80;99.90
37478;DHT22;23334;54.316;10.182;2022-08-26T16:08:52;25.90;99.90
37478;DHT22;23334;54.316;10.182;2022-08-26T16:11:18;25.60;99.90
37478;DHT22;23334;54.316;10.182;2022-08-26T16:13:44;25.80;99.90
37478;DHT22;23334;54.316;10.182;2022-08-26T16:16:10;25.80;99.90
37478;DHT22;23334;54.316;10.182;2022-08-26T16:18:36;25.80;99.90
37478;DHT22;23334;54.316;10.182;2022-08-26T16:21:02;25.80;99.90
37478;DHT22;23334;54.316;10.182;2022-08-26T16:23:28;26.00;99.90
37478;DHT22;23334;54.316;10.182;2022-08-26T16:30:55;25.80;99.90
37478;DHT22;23334;54.316;10.182;2022-08-26T16:33:23;25.70;99.90
37478;DHT22;23334;54.316;10.182;2022-08-26T16:35:48;25.50;99.90
37478;DHT22;23334;54.316;10.182;2022-08-26T16:38:14;24.80;99.90
37478;DHT22;23334;54.316;10.182;2022-08-26T16:40:39;24.90;99.90
37478;DHT22;23334;54.316;10.182;2022-08-26T16:43:05;24.70;99.90
37478;DHT22;23334;54.316;10.182;2022-08-26T16:45:31;24.50;99.90
37478;DHT22;23334;54.316;10.182;2022-08-26T16:47:56;24.30;99.90
37478;DHT22;23334;54.316;10.182;2022-08-26T16:50:23;24.10;99.90
37478;DHT22;23334;54.316;10.182;2022-08-26T16:52:53;24.10;99.90
37478;DHT22;23334;54.316;10.182;2022-08-26T16:55:19;23.90;99.90
37478;DHT22;23334;54.316;10.182;2022-08-26T16:57:45;24.00;99.90
37478;DHT22;23334;54.316;10.182;2022-08-26T17:00:14;23.70;99.90
37478;DHT22;23334;54.316;10.182;2022-08-26T17:02:40;24.00;99.90
37478;DHT22;23334;54.316;10.182;2022-08-26T17:05:07;23.60;99.90
37478;DHT22;23334;54.316;10.182;2022-08-26T17:07:33;23.90;99.90
37478;DHT22;23334;54.316;10.182;2022-08-26T17:10:00;23.50;99.90
37478;DHT22;23334;54.316;10.182;2022-08-26T17:12:25;23.50;99.90
37478;DHT22;23334;54.316;10.182;2022-08-26T17:14:53;23.50;99.90
37478;DHT22;23334;54.316;10.182;2022-08-26T17:17:18;23.70;99.90
37478;DHT22;23334;54.316;10.182;2022-08-26T17:19:44;23.60;99.90
37478;DHT22;23334;54.316;10.182;2022-08-26T17:24:36;23.50;99.90
37478;DHT22;23334;54.316;10.182;2022-08-26T17:27:01;23.40;99.90
37478;DHT22;23334;54.316;10.182;2022-08-26T17:31:53;23.30;99.90
37478;DHT22;23334;54.316;10.182;2022-08-26T17:34:20;23.20;99.90
37478;DHT22;23334;54.316;10.182;2022-08-26T17:36:46;23.20;99.90
37478;DHT22;23334;54.316;10.182;2022-08-26T17:39:11;23.10;99.90
37478;DHT22;23334;54.316;10.182;2022-08-26T17:41:38;23.10;99.90
37478;DHT22;23334;54.316;10.182;2022-08-26T17:44:04;23.00;99.90
37478;DHT22;23334;54.316;10.182;2022-08-26T17:46:30;23.00;99.90
37478;DHT22;23334;54.316;10.182;2022-08-26T17:48:56;22.80;99.90
37478;DHT22;23334;54.316;10.182;2022-08-26T17:51:22;22.80;99.90
37478;DHT22;23334;54.316;10.182;2022-08-26T17:53:48;22.80;99.90
37478;DHT22;23334;54.316;10.182;2022-08-26T17:56:18;22.70;99.90
37478;DHT22;23334;54.316;10.182;2022-08-26T17:58:44;22.60;99.90
37478;DHT22;23334;54.316;10.182;2022-08-26T18:01:10;22.60;99.90
37478;DHT22;23334;54.316;10.182;2022-08-26T18:03:35;22.60;99.90
37478;DHT22;23334;54.316;10.182;2022-08-26T18:06:01;22.50;99.90
37478;DHT22;23334;54.316;10.182;2022-08-26T18:08:31;22.50;99.90
37478;DHT22;23334;54.316;10.182;2022-08-26T18:10:57;22.50;99.90
37478;DHT22;23334;54.316;10.182;2022-08-26T18:13:23;22.50;99.90
37478;DHT22;23334;54.316;10.182;2022-08-26T18:15:49;22.50;99.90
37478;DHT22;23334;54.316;10.182;2022-08-26T18:18:15;22.40;99.90
37478;DHT22;23334;54.316;10.182;2022-08-26T18:20:41;22.40;99.90
37478;DHT22;23334;54.316;10.182;2022-08-26T18:23:07;22.20;99.90
37478;DHT22;23334;54.316;10.182;2022-08-26T18:25:33;22.30;99.90
37478;DHT22;23334;54.316;10.182;2022-08-26T18:27:59;22.30;99.90
37478;DHT22;23334;54.316;10.182;2022-08-26T18:30:24;22.20;99.90
37478;DHT22;23334;54.316;10.182;2022-08-26T18:32:51;22.10;99.90
37478;DHT22;23334;54.316;10.182;2022-08-26T18:35:17;22.20;99.90
37478;DHT22;23334;54.316;10.182;2022-08-26T18:37:43;22.10;99.90
37478;DHT22;23334;54.316;10.182;2022-08-26T18:40:11;22.00;99.90
37478;DHT22;23334;54.316;10.182;2022-08-26T18:42:37;21.10;99.90
37478;DHT22;23334;54.316;10.182;2022-08-26T18:45:05;21.90;99.90
37478;DHT22;23334;54.316;10.182;2022-08-26T18:47:31;22.00;99.90
37478;DHT22;23334;54.316;10.182;2022-08-26T18:49:57;21.30;99.90
37478;DHT22;23334;54.316;10.182;2022-08-26T18:52:22;21.80;99.90
37478;DHT22;23334;54.316;10.182;2022-08-26T19:02:07;21.80;99.90
37478;DHT22;23334;54.316;10.182;2022-08-26T19:07:01;21.80;99.90
37478;DHT22;23334;54.316;10.182;2022-08-26T19:09:26;21.70;99.90
37478;DHT22;23334;54.316;10.182;2022-08-26T19:11:52;21.80;99.90
37478;DHT22;23334;54.316;10.182;2022-08-26T19:14:18;21.80;99.90
37478;DHT22;23334;54.316;10.182;2022-08-26T19:19:12;21.70;99.90
37478;DHT22;23334;54.316;10.182;2022-08-26T19:21:39;21.30;99.90
37478;DHT22;23334;54.316;10.182;2022-08-26T19:24:08;21.70;99.90
37478;DHT22;23334;54.316;10.182;2022-08-26T19:26:36;21.70;99.90
37478;DHT22;23334;54.316;10.182;2022-08-26T19:29:03;21.60;99.90
37478;DHT22;23334;54.316;10.182;2022-08-26T19:31:29;21.60;99.90
37478;DHT22;23334;54.316;10.182;2022-08-26T19:33:55;21.60;99.90
37478;DHT22;23334;54.316;10.182;2022-08-26T19:36:23;21.60;99.90
37478;DHT22;23334;54.316;10.182;2022-08-26T19:38:50;21.60;99.90
37478;DHT22;23334;54.316;10.182;2022-08-26T19:41:19;21.60;99.90
37478;DHT22;23334;54.316;10.182;2022-08-26T19:43:46;21.50;99.90
37478;DHT22;23334;54.316;10.182;2022-08-26T19:46:14;21.50;99.90
37478;DHT22;23334;54.316;10.182;2022-08-26T19:48:41;21.50;99.90
37478;DHT22;23334;54.316;10.182;2022-08-26T19:51:24;21.50;99.90
37478;DHT22;23334;54.316;10.182;2022-08-26T19:53:51;21.50;99.90
37478;DHT22;23334;54.316;10.182;2022-08-26T19:56:17;21.40;99.90
37478;DHT22;23334;54.316;10.182;2022-08-26T19:58:44;21.40;99.90
37478;DHT22;23334;54.316;10.182;2022-08-26T20:01:10;21.40;99.90
37478;DHT22;23334;54.316;10.182;2022-08-26T20:03:37;21.30;99.90
37478;DHT22;23334;54.316;10.182;2022-08-26T20:06:05;21.30;99.90
37478;DHT22;23334;54.316;10.182;2022-08-26T20:08:32;21.30;99.90
37478;DHT22;23334;54.316;10.182;2022-08-26T20:11:03;21.30;99.90
37478;DHT22;23334;54.316;10.182;2022-08-26T20:13:30;21.30;99.90
37478;DHT22;23334;54.316;10.182;2022-08-26T20:15:56;21.30;99.90
37478;DHT22;23334;54.316;10.182;2022-08-26T20:18:21;21.20;99.90
37478;DHT22;23334;54.316;10.182;2022-08-26T20:21:06;21.20;99.90
37478;DHT22;23334;54.316;10.182;2022-08-26T20:23:51;21.20;99.90